Time;durP1;ratioP1;P1;durP2;ratioP2;P2;SDS_P1;SDS_P2;PMS_P1;PMS_P2;Temp;Humidity;BMP_temperature;BMP_pressure;BME280_temperature;BME280_humidity;BME280_pressure;Samples;Min_cycle;Max_cycle;Signal;HPM_P1;HPM_P2
2022/07/20 00:01:57;;;;;;;;;;;;;;;;;;5053034;28;19917;-41
2022/07/20 00:04:22;;;;;;;;;;;;;;;;;;5052958;28;19920;-41
2022/07/20 00:06:47;;;;;;;;;;;;;;;;;;5053299;28;19916;-41
2022/07/20 00:11:56;;;;;;;;;;;;;;;;;;5052956;28;19955;-41
2022/07/20 00:14:22;;;;;;;;;;;;;;;;;;5053214;28;20313;-43
2022/07/20 00:16:47;;;;;;;;;;;;;;;;;;5052621;28;20421;-42
2022/07/20 00:19:12;;;;;;;;;;;;;;;;;;5052827;28;20278;-40
2022/07/20 00:21:38;;;;;;;;;;;;;;;;;;5052994;28;19912;-42
2022/07/20 00:24:03;;;;;;;;;;;;;;;;;;5051857;28;19905;-42
2022/07/20 00:26:28;;;;;;;;;;;;;;;;;;5052793;28;19920;-41
2022/07/20 00:28:53;;;;;;;;;;;;;;;;;;5052814;28;19999;-41
2022/07/20 00:31:19;;;;;;;;;;;;;;;;;;5052878;28;19955;-42
2022/07/20 00:33:46;;;;;;;;;;;;;;;;;;5052732;28;19912;-41
2022/07/20 00:36:11;;;;;;;;;;;;;;;;;;5052553;28;20030;-41
2022/07/20 00:38:37;;;;;;;;;;;;;;;;;;5052370;28;19960;-41
2022/07/20 00:41:02;;;;;;;;;;;;;;;;;;5052409;28;19909;-41
2022/07/20 00:43:27;;;;;;;;;;;;;;;;;;5052308;28;19919;-41
2022/07/20 00:45:53;;;;;;;;;;;;;;;;;;5050993;28;19969;-42
2022/07/20 00:48:18;;;;;;;;;;;;;;;;;;5052237;28;19908;-41
2022/07/20 00:50:43;;;;;;;;;;;;;;;;;;5052518;28;19970;-41
2022/07/20 00:53:08;;;;;;;;;;;;;;;;;;5052442;28;19905;-43
2022/07/20 00:55:34;;;;;;;;;;;;;;;;;;5052416;28;19912;-41
2022/07/20 00:57:59;;;;;;;;;;;;;;;;;;5052146;28;19961;-41
2022/07/20 01:00:24;;;;;;;;;;;;;;;;;;5052062;28;19908;-42
2022/07/20 01:02:49;;;;;;;;;;;;;;;;;;5052004;28;19916;-41
2022/07/20 01:05:15;;;;;;;;;;;;;;;;;;5052034;28;19916;-43
2022/07/20 01:07:40;;;;;;;;;;;;;;;;;;5052153;28;19913;-43
2022/07/20 01:10:05;;;;;;;;;;;;;;;;;;5052074;28;19912;-41
2022/07/20 01:12:31;;;;;;;;;;;;;;;;;;5051957;28;19905;-42
2022/07/20 01:14:56;;;;;;;;;;;;;;;;;;5052042;28;19951;-41
2022/07/20 01:17:21;;;;;;;;;;;;;;;;;;5051752;28;19917;-41
2022/07/20 01:19:46;;;;;;;;;;;;;;;;;;5051786;28;19919;-41
2022/07/20 01:22:12;;;;;;;;;;;;;;;;;;5052008;28;20286;-41
2022/07/20 01:24:37;;;;;;;;;;;;;;;;;;5051947;28;20252;-42
2022/07/20 01:27:03;;;;;;;;;;;;;;;;;;5051793;28;19904;-41
2022/07/20 01:29:28;;;;;;;;;;;;;;;;;;5051768;28;19912;-41
2022/07/20 01:31:53;;;;;;;;;;;;;;;;;;5051601;28;19905;-42
2022/07/20 01:34:19;;;;;;;;;;;;;;;;;;5051664;28;19936;-41
2022/07/20 01:36:44;;;;;;;;;;;;;;;;;;5051410;28;19904;-42
2022/07/20 01:39:10;;;;;;;;;;;;;;;;;;5051862;28;19958;-42
2022/07/20 01:41:35;;;;;;;;;;;;;;;;;;5051842;28;20347;-42
2022/07/20 01:44:00;;;;;;;;;;;;;;;;;;5051692;28;20281;-41
2022/07/20 01:46:26;;;;;;;;;;;;;;;;;;5051869;28;20544;-40
2022/07/20 01:48:51;;;;;;;;;;;;;;;;;;5051514;28;19920;-40
2022/07/20 01:51:17;;;;;;;;;;;;;;;;;;5051739;28;20294;-40
2022/07/20 01:53:42;;;;;;;;;;;;;;;;;;5051686;28;19919;-42
2022/07/20 01:56:07;;;;;;;;;;;;;;;;;;5050310;28;19911;-41
2022/07/20 01:58:32;;;;;;;;;;;;;;;;;;5051399;28;19947;-41
2022/07/20 02:00:57;;;;;;;;;;;;;;;;;;5051388;28;19916;-41
2022/07/20 02:03:23;;;;;;;;;;;;;;;;;;5051543;28;19970;-45
2022/07/20 02:05:48;;;;;;;;;;;;;;;;;;5051329;28;19905;-41
2022/07/20 02:08:13;;;;;;;;;;;;;;;;;;5051379;28;19909;-41
2022/07/20 02:10:39;;;;;;;;;;;;;;;;;;5051236;28;19908;-41
2022/07/20 02:13:04;;;;;;;;;;;;;;;;;;5051564;28;20011;-41
2022/07/20 02:18:13;;;;;;;;;;;;;;;;;;5051534;28;19909;-41
2022/07/20 02:20:38;;;;;;;;;;;;;;;;;;5051111;28;20023;-41
2022/07/20 02:23:04;;;;;;;;;;;;;;;;;;5051164;28;19917;-41
2022/07/20 02:25:29;;;;;;;;;;;;;;;;;;5051122;28;19909;-41
2022/07/20 02:27:54;;;;;;;;;;;;;;;;;;5051409;28;19919;-41
2022/07/20 02:30:19;;;;;;;;;;;;;;;;;;5051208;28;19909;-40
2022/07/20 02:32:45;;;;;;;;;;;;;;;;;;5051339;28;20004;-41
2022/07/20 02:35:10;;;;;;;;;;;;;;;;;;5051396;28;19932;-41
2022/07/20 02:37:35;;;;;;;;;;;;;;;;;;5051389;28;20267;-41
2022/07/20 02:40:01;;;;;;;;;;;;;;;;;;5051227;28;19904;-41
2022/07/20 02:42:26;;;;;;;;;;;;;;;;;;5051017;28;20023;-40
2022/07/20 02:44:51;;;;;;;;;;;;;;;;;;5051014;28;19904;-41
2022/07/20 02:47:16;;;;;;;;;;;;;;;;;;5050923;28;19916;-40
2022/07/20 02:49:41;;;;;;;;;;;;;;;;;;5054500;28;19904;-40
2022/07/20 02:52:07;;;;;;;;;;;;;;;;;;5054786;28;19988;-41
2022/07/20 02:54:32;;;;;;;;;;;;;;;;;;5053092;28;20297;-41
2022/07/20 02:56:57;;;;;;;;;;;;;;;;;;5054386;28;19913;-40
2022/07/20 02:59:22;;;;;;;;;;;;;;;;;;5054399;28;19988;-40
2022/07/20 03:01:48;;;;;;;;;;;;;;;;;;5054185;28;19912;-41
2022/07/20 03:04:13;;;;;;;;;;;;;;;;;;5054329;28;19955;-40
2022/07/20 03:06:38;;;;;;;;;;;;;;;;;;5054442;28;19915;-42
2022/07/20 03:09:04;;;;;;;;;;;;;;;;;;5054242;28;20308;-41
2022/07/20 03:11:29;;;;;;;;;;;;;;;;;;5054285;28;19909;-40
2022/07/20 03:13:54;;;;;;;;;;;;;;;;;;5054067;28;20397;-41
2022/07/20 03:16:19;;;;;;;;;;;;;;;;;;5054032;28;19923;-41
2022/07/20 03:18:44;;;;;;;;;;;;;;;;;;5054224;28;19912;-41
2022/07/20 03:21:10;;;;;;;;;;;;;;;;;;5054298;28;19939;-42
2022/07/20 03:23:35;;;;;;;;;;;;;;;;;;5054043;28;20541;-41
2022/07/20 03:26:01;;;;;;;;;;;;;;;;;;5054044;28;19957;-41
2022/07/20 03:28:26;;;;;;;;;;;;;;;;;;5054220;28;19904;-40
2022/07/20 03:30:51;;;;;;;;;;;;;;;;;;5053972;28;20519;-41
2022/07/20 03:33:17;;;;;;;;;;;;;;;;;;5053795;28;20263;-40
2022/07/20 03:35:42;;;;;;;;;;;;;;;;;;5054001;28;19916;-41
2022/07/20 03:38:07;;;;;;;;;;;;;;;;;;5053589;28;19923;-42
2022/07/20 03:40:32;;;;;;;;;;;;;;;;;;5053923;28;20003;-41
2022/07/20 03:42:58;;;;;;;;;;;;;;;;;;5053543;28;20326;-42
2022/07/20 03:45:23;;;;;;;;;;;;;;;;;;5053730;28;19908;-40
2022/07/20 03:47:48;;;;;;;;;;;;;;;;;;5053746;28;20359;-42
2022/07/20 03:50:13;;;;;;;;;;;;;;;;;;5053412;28;20374;-41
2022/07/20 03:52:39;;;;;;;;;;;;;;;;;;5053227;28;19929;-40
2022/07/20 03:55:04;;;;;;;;;;;;;;;;;;5053323;28;19919;-41
2022/07/20 03:57:29;;;;;;;;;;;;;;;;;;5053496;28;19909;-41
2022/07/20 03:59:54;;;;;;;;;;;;;;;;;;5053143;28;20435;-42
2022/07/20 04:02:20;;;;;;;;;;;;;;;;;;5051859;28;19928;-40
2022/07/20 04:04:45;;;;;;;;;;;;;;;;;;5052946;28;19916;-42
2022/07/20 04:07:10;;;;;;;;;;;;;;;;;;5053151;28;19912;-41
2022/07/20 04:09:45;;;;;;;;;;;;;;;;;;5052089;28;19913;-42
2022/07/20 04:12:10;;;;;;;;;;;;;;;;;;5053017;28;19909;-41
2022/07/20 04:14:35;;;;;;;;;;;;;;;;;;5052876;28;19905;-41
2022/07/20 04:17:00;;;;;;;;;;;;;;;;;;5052669;28;19923;-40
2022/07/20 04:19:26;;;;;;;;;;;;;;;;;;5053097;28;19916;-40
2022/07/20 04:21:52;;;;;;;;;;;;;;;;;;5052570;28;19915;-40
2022/07/20 04:24:17;;;;;;;;;;;;;;;;;;5051517;28;19917;-41
2022/07/20 04:26:43;;;;;;;;;;;;;;;;;;5052677;28;20010;-41
2022/07/20 04:29:08;;;;;;;;;;;;;;;;;;5052771;28;20000;-41
2022/07/20 04:31:33;;;;;;;;;;;;;;;;;;5052992;28;19912;-41
2022/07/20 04:33:58;;;;;;;;;;;;;;;;;;5052716;28;19909;-40
2022/07/20 04:36:24;;;;;;;;;;;;;;;;;;5052600;28;19909;-41
2022/07/20 04:38:49;;;;;;;;;;;;;;;;;;5052803;28;19908;-41
2022/07/20 04:41:14;;;;;;;;;;;;;;;;;;5052694;28;19913;-40
2022/07/20 04:43:40;;;;;;;;;;;;;;;;;;5052540;28;20018;-41
2022/07/20 04:46:05;;;;;;;;;;;;;;;;;;5052648;28;19909;-41
2022/07/20 04:48:30;;;;;;;;;;;;;;;;;;5052333;28;19908;-40
2022/07/20 04:50:56;;;;;;;;;;;;;;;;;;5052320;28;19913;-44
2022/07/20 04:53:21;;;;;;;;;;;;;;;;;;5052256;28;19905;-41
2022/07/20 04:55:46;;;;;;;;;;;;;;;;;;5052091;28;20021;-41
2022/07/20 04:58:11;;;;;;;;;;;;;;;;;;5052174;28;19908;-40
2022/07/20 05:00:37;;;;;;;;;;;;;;;;;;5052198;28;19915;-43
2022/07/20 05:03:02;;;;;;;;;;;;;;;;;;5052182;28;19912;-41
2022/07/20 05:05:27;;;;;;;;;;;;;;;;;;5052077;28;19909;-41
2022/07/20 05:07:53;;;;;;;;;;;;;;;;;;5051936;28;19958;-41
2022/07/20 05:10:18;;;;;;;;;;;;;;;;;;5051712;28;19966;-41
2022/07/20 05:12:44;;;;;;;;;;;;;;;;;;5051833;28;19908;-40
2022/07/20 05:15:09;;;;;;;;;;;;;;;;;;5051780;28;19954;-41
2022/07/20 05:17:34;;;;;;;;;;;;;;;;;;5051871;28;19912;-42
2022/07/20 05:19:59;;;;;;;;;;;;;;;;;;5052098;28;20278;-42
2022/07/20 05:22:25;;;;;;;;;;;;;;;;;;5051790;28;19917;-41
2022/07/20 05:24:50;;;;;;;;;;;;;;;;;;5051647;28;20004;-40
2022/07/20 05:27:15;;;;;;;;;;;;;;;;;;5052052;28;19912;-40
2022/07/20 05:29:41;;;;;;;;;;;;;;;;;;5051699;28;20015;-41
2022/07/20 05:32:08;;;;;;;;;;;;;;;;;;5051653;28;19912;-42
2022/07/20 05:34:33;;;;;;;;;;;;;;;;;;5051645;28;19987;-40
2022/07/20 05:36:58;;;;;;;;;;;;;;;;;;5051589;28;20020;-42
2022/07/20 05:39:24;;;;;;;;;;;;;;;;;;5050363;28;19916;-42
2022/07/20 05:41:49;;;;;;;;;;;;;;;;;;5051564;28;19909;-41
2022/07/20 05:44:14;;;;;;;;;;;;;;;;;;5051790;28;19916;-42
2022/07/20 05:46:39;;;;;;;;;;;;;;;;;;5051827;28;20274;-41
2022/07/20 05:49:05;;;;;;;;;;;;;;;;;;5050236;28;19967;-40
2022/07/20 05:51:30;;;;;;;;;;;;;;;;;;5051614;28;20481;-42
2022/07/20 05:53:55;;;;;;;;;;;;;;;;;;5051715;28;19908;-41
2022/07/20 05:56:20;;;;;;;;;;;;;;;;;;5051483;28;20401;-42
2022/07/20 05:58:46;;;;;;;;;;;;;;;;;;5051626;28;19955;-41
2022/07/20 06:01:11;;;;;;;;;;;;;;;;;;5051720;28;20244;-41
2022/07/20 06:03:36;;;;;;;;;;;;;;;;;;5051568;28;19923;-41
2022/07/20 06:06:02;;;;;;;;;;;;;;;;;;5051315;28;19911;-41
2022/07/20 06:08:27;;;;;;;;;;;;;;;;;;5051698;28;20279;-41
2022/07/20 06:10:52;;;;;;;;;;;;;;;;;;5051545;28;19905;-42
2022/07/20 06:13:18;;;;;;;;;;;;;;;;;;5051301;28;20327;-41
2022/07/20 06:15:43;;;;;;;;;;;;;;;;;;5050996;28;19943;-41
2022/07/20 06:18:08;;;;;;;;;;;;;;;;;;5051264;28;19954;-40
2022/07/20 06:20:35;;;;;;;;;;;;;;;;;;5051380;28;19958;-41
2022/07/20 06:23:00;;;;;;;;;;;;;;;;;;5052547;28;19963;-41
2022/07/20 06:25:26;;;;;;;;;;;;;;;;;;5055368;28;20314;-40
2022/07/20 06:27:51;;;;;;;;;;;;;;;;;;5054928;28;19920;-41
2022/07/20 06:30:16;;;;;;;;;;;;;;;;;;5055059;28;19908;-42
2022/07/20 06:32:42;;;;;;;;;;;;;;;;;;5055169;28;19908;-40
2022/07/20 06:35:07;;;;;;;;;;;;;;;;;;5054803;28;20370;-41
2022/07/20 06:37:32;;;;;;;;;;;;;;;;;;5055197;28;20011;-42
2022/07/20 06:39:58;;;;;;;;;;;;;;;;;;5054763;28;20378;-40
2022/07/20 06:42:23;;;;;;;;;;;;;;;;;;5054929;28;19974;-41
2022/07/20 06:44:49;;;;;;;;;;;;;;;;;;5053382;28;20355;-42
2022/07/20 06:47:14;;;;;;;;;;;;;;;;;;5054603;28;19909;-41
2022/07/20 06:49:40;;;;;;;;;;;;;;;;;;5054608;28;19940;-41
2022/07/20 06:52:05;;;;;;;;;;;;;;;;;;5054393;28;19951;-41
2022/07/20 06:54:31;;;;;;;;;;;;;;;;;;5054563;28;19908;-40
2022/07/20 06:56:56;;;;;;;;;;;;;;;;;;5054648;28;19916;-40
2022/07/20 06:59:22;;;;;;;;;;;;;;;;;;5054681;28;20439;-41
2022/07/20 07:01:48;;;;;;;;;;;;;;;;;;5054474;28;19963;-41
2022/07/20 07:04:13;;;;;;;;;;;;;;;;;;5054290;28;19908;-41
2022/07/20 07:06:39;;;;;;;;;;;;;;;;;;5054301;28;20279;-41
2022/07/20 07:09:04;;;;;;;;;;;;;;;;;;5054474;28;19966;-40
2022/07/20 07:11:29;;;;;;;;;;;;;;;;;;5054172;28;19913;-41
2022/07/20 07:13:55;;;;;;;;;;;;;;;;;;5054078;28;20011;-40
2022/07/20 07:16:21;;;;;;;;;;;;;;;;;;5053949;28;19921;-41
2022/07/20 07:18:46;;;;;;;;;;;;;;;;;;5053939;28;19949;-40
2022/07/20 07:21:12;;;;;;;;;;;;;;;;;;5054043;28;19958;-41
2022/07/20 07:23:37;;;;;;;;;;;;;;;;;;5053953;28;20007;-41
2022/07/20 07:26:03;;;;;;;;;;;;;;;;;;5052544;28;19951;-41
2022/07/20 07:28:28;;;;;;;;;;;;;;;;;;5053940;28;19966;-40
2022/07/20 07:30:53;;;;;;;;;;;;;;;;;;5053732;28;19916;-41
2022/07/20 07:33:24;;;;;;;;;;;;;;;;;;5053227;28;19909;-40
2022/07/20 07:35:49;;;;;;;;;;;;;;;;;;5053968;28;20030;-41
2022/07/20 07:38:15;;;;;;;;;;;;;;;;;;5053632;28;19995;-41
2022/07/20 07:40:40;;;;;;;;;;;;;;;;;;5053922;28;19955;-40
2022/07/20 07:43:06;;;;;;;;;;;;;;;;;;5053384;28;19920;-41
2022/07/20 07:45:31;;;;;;;;;;;;;;;;;;5054001;28;19915;-43
2022/07/20 07:47:56;;;;;;;;;;;;;;;;;;5053400;28;20003;-42
2022/07/20 07:50:22;;;;;;;;;;;;;;;;;;5053428;28;19919;-40
2022/07/20 07:52:47;;;;;;;;;;;;;;;;;;5053293;28;19904;-41
2022/07/20 07:55:13;;;;;;;;;;;;;;;;;;5052149;28;19909;-40
2022/07/20 07:57:39;;;;;;;;;;;;;;;;;;5053308;28;19909;-40
2022/07/20 08:00:04;;;;;;;;;;;;;;;;;;5052025;28;20019;-40
2022/07/20 08:02:36;;;;;;;;;;;;;;;;;;5053108;28;20631;-41
2022/07/20 08:05:02;;;;;;;;;;;;;;;;;;5053073;28;20004;-41
2022/07/20 08:07:27;;;;;;;;;;;;;;;;;;5053059;28;20318;-40
2022/07/20 08:09:52;;;;;;;;;;;;;;;;;;5053329;28;19915;-42
2022/07/20 08:12:18;;;;;;;;;;;;;;;;;;5051919;28;19905;-40
2022/07/20 08:14:43;;;;;;;;;;;;;;;;;;5052723;28;19909;-42
2022/07/20 08:17:08;;;;;;;;;;;;;;;;;;5052814;28;19963;-41
2022/07/20 08:19:34;;;;;;;;;;;;;;;;;;5053192;28;19908;-40
2022/07/20 08:21:59;;;;;;;;;;;;;;;;;;5052949;28;19963;-40
2022/07/20 08:24:25;;;;;;;;;;;;;;;;;;5052838;28;19908;-40
2022/07/20 08:26:50;;;;;;;;;;;;;;;;;;5052712;28;20405;-40
2022/07/20 08:29:15;;;;;;;;;;;;;;;;;;5052648;28;19962;-41
2022/07/20 08:31:41;;;;;;;;;;;;;;;;;;5052693;28;20302;-41
2022/07/20 08:34:06;;;;;;;;;;;;;;;;;;5052486;28;19909;-40
2022/07/20 08:36:31;;;;;;;;;;;;;;;;;;5052471;28;19916;-40
2022/07/20 08:38:57;;;;;;;;;;;;;;;;;;5051087;28;19944;-42
2022/07/20 08:41:22;;;;;;;;;;;;;;;;;;5052798;28;19916;-42
2022/07/20 08:43:48;;;;;;;;;;;;;;;;;;5052283;28;19969;-41
2022/07/20 08:46:13;;;;;;;;;;;;;;;;;;5050237;28;19916;-41
2022/07/20 08:48:39;;;;;;;;;;;;;;;;;;5052318;28;19915;-41
2022/07/20 08:51:04;;;;;;;;;;;;;;;;;;5052435;28;20275;-40
2022/07/20 08:53:30;;;;;;;;;;;;;;;;;;5052255;28;19954;-41
2022/07/20 08:55:55;;;;;;;;;;;;;;;;;;5052149;28;19905;-40
2022/07/20 08:58:21;;;;;;;;;;;;;;;;;;5050825;28;19913;-41
2022/07/20 09:00:47;;;;;;;;;;;;;;;;;;5052429;28;20313;-40
2022/07/20 09:03:13;;;;;;;;;;;;;;;;;;5052404;28;19916;-41
2022/07/20 09:05:38;;;;;;;;;;;;;;;;;;5051964;28;20298;-40
2022/07/20 09:08:04;;;;;;;;;;;;;;;;;;5051895;28;19916;-40
2022/07/20 09:10:29;;;;;;;;;;;;;;;;;;5051969;28;20365;-41
2022/07/20 09:12:55;;;;;;;;;;;;;;;;;;5051731;28;19962;-41
2022/07/20 09:15:20;;;;;;;;;;;;;;;;;;5051772;28;19912;-42
2022/07/20 09:17:46;;;;;;;;;;;;;;;;;;5051849;28;20011;-41
2022/07/20 09:20:11;;;;;;;;;;;;;;;;;;5051950;28;20008;-41
2022/07/20 09:22:37;;;;;;;;;;;;;;;;;;5051719;28;19967;-41
2022/07/20 09:25:02;;;;;;;;;;;;;;;;;;5051751;28;19904;-41
2022/07/20 09:27:28;;;;;;;;;;;;;;;;;;5052062;28;19978;-42
2022/07/20 09:29:53;;;;;;;;;;;;;;;;;;5051706;28;20278;-42
2022/07/20 09:32:19;;;;;;;;;;;;;;;;;;5051720;28;19908;-42
2022/07/20 09:34:45;;;;;;;;;;;;;;;;;;5051586;28;19905;-41
2022/07/20 09:37:10;;;;;;;;;;;;;;;;;;5051672;28;19908;-42
2022/07/20 09:39:36;;;;;;;;;;;;;;;;;;5051982;28;19999;-41
2022/07/20 09:42:02;;;;;;;;;;;;;;;;;;5051454;28;20046;-41
2022/07/20 09:44:28;;;;;;;;;;;;;;;;;;5050567;28;19908;-42
2022/07/20 09:46:53;;;;;;;;;;;;;;;;;;5051784;28;19908;-41
2022/07/20 09:49:21;;;;;;;;;;;;;;;;;;5050370;28;20359;-41
2022/07/20 09:51:49;;;;;;;;;;;;;;;;;;5051505;28;19931;-41
2022/07/20 09:54:17;;;;;;;;;;;;;;;;;;5051463;28;19967;-41
2022/07/20 09:56:43;;;;;;;;;;;;;;;;;;5052243;28;20301;-42
2022/07/20 09:59:10;;;;;;;;;;;;;;;;;;5055588;28;19904;-40
2022/07/20 10:01:36;;;;;;;;;;;;;;;;;;5055730;28;19908;-42
2022/07/20 10:04:04;;;;;;;;;;;;;;;;;;5055325;28;19916;-42
2022/07/20 10:06:30;;;;;;;;;;;;;;;;;;5055708;28;20286;-41
2022/07/20 10:08:55;;;;;;;;;;;;;;;;;;5055498;28;20275;-41
2022/07/20 10:11:21;;;;;;;;;;;;;;;;;;5055732;28;20011;-41
2022/07/20 10:13:48;;;;;;;;;;;;;;;;;;5055171;28;20393;-41
2022/07/20 10:16:13;;;;;;;;;;;;;;;;;;5055146;28;19921;-42
2022/07/20 10:18:38;;;;;;;;;;;;;;;;;;5055168;28;20259;-41
2022/07/20 10:21:04;;;;;;;;;;;;;;;;;;5055091;28;19909;-41
2022/07/20 10:23:31;;;;;;;;;;;;;;;;;;5055047;28;19939;-42
2022/07/20 10:25:56;;;;;;;;;;;;;;;;;;5055174;28;20274;-42
2022/07/20 10:28:25;;;;;;;;;;;;;;;;;;5055059;28;19912;-41
2022/07/20 10:30:51;;;;;;;;;;;;;;;;;;5053777;28;19962;-41
2022/07/20 10:33:16;;;;;;;;;;;;;;;;;;5054867;28;19904;-42
2022/07/20 10:35:42;;;;;;;;;;;;;;;;;;5054875;28;20031;-41
2022/07/20 10:38:07;;;;;;;;;;;;;;;;;;5054844;28;19905;-41
2022/07/20 10:41:31;;;;;;;;;;;;;;;;;;5055085;28;19913;-42
2022/07/20 10:43:18;;;;;;;;;;;;;;;;;;5054525;28;20356;-41
2022/07/20 10:45:45;;;;;;;;;;;;;;;;;;5054642;28;19909;-42
2022/07/20 10:48:14;;;;;;;;;;;;;;;;;;5054650;28;19909;-41
2022/07/20 10:50:40;;;;;;;;;;;;;;;;;;5054414;28;19909;-42
2022/07/20 10:53:06;;;;;;;;;;;;;;;;;;5054758;28;20256;-41
2022/07/20 10:55:31;;;;;;;;;;;;;;;;;;5053281;28;20754;-41
2022/07/20 10:57:56;;;;;;;;;;;;;;;;;;5054688;28;19986;-40
2022/07/20 11:00:22;;;;;;;;;;;;;;;;;;5054716;28;20003;-41
2022/07/20 11:02:47;;;;;;;;;;;;;;;;;;5053019;28;19916;-42
2022/07/20 11:05:12;;;;;;;;;;;;;;;;;;5054351;28;19958;-41
2022/07/20 11:07:38;;;;;;;;;;;;;;;;;;5054128;28;19962;-41
2022/07/20 11:10:04;;;;;;;;;;;;;;;;;;5053256;28;20154;-42
2022/07/20 11:12:29;;;;;;;;;;;;;;;;;;5054431;28;19912;-42
2022/07/20 11:14:55;;;;;;;;;;;;;;;;;;5054358;28;19927;-41
2022/07/20 11:17:20;;;;;;;;;;;;;;;;;;5054043;28;19928;-41
2022/07/20 11:19:46;;;;;;;;;;;;;;;;;;5053988;28;19909;-41
2022/07/20 11:22:11;;;;;;;;;;;;;;;;;;5053982;28;19944;-42
2022/07/20 11:24:36;;;;;;;;;;;;;;;;;;5053982;28;19916;-41
2022/07/20 11:27:02;;;;;;;;;;;;;;;;;;5053795;28;19908;-42
2022/07/20 11:29:27;;;;;;;;;;;;;;;;;;5054000;28;19916;-41
2022/07/20 11:31:53;;;;;;;;;;;;;;;;;;5053717;28;19908;-40
2022/07/20 11:34:18;;;;;;;;;;;;;;;;;;5054047;28;19904;-42
2022/07/20 11:36:43;;;;;;;;;;;;;;;;;;5053862;28;20283;-41
2022/07/20 11:39:09;;;;;;;;;;;;;;;;;;5053588;28;19908;-42
2022/07/20 11:41:35;;;;;;;;;;;;;;;;;;5052297;28;19912;-41
2022/07/20 11:44:00;;;;;;;;;;;;;;;;;;5053441;28;19923;-43
2022/07/20 11:46:26;;;;;;;;;;;;;;;;;;5053641;28;20319;-41
2022/07/20 11:48:51;;;;;;;;;;;;;;;;;;5053568;28;19970;-42
2022/07/20 11:51:17;;;;;;;;;;;;;;;;;;5053503;28;19909;-40
2022/07/20 11:53:43;;;;;;;;;;;;;;;;;;5053432;28;19950;-42
2022/07/20 11:56:09;;;;;;;;;;;;;;;;;;5053280;28;19909;-41
2022/07/20 11:58:34;;;;;;;;;;;;;;;;;;5053290;28;19912;-42
2022/07/20 12:00:59;;;;;;;;;;;;;;;;;;5053101;28;19912;-41
2022/07/20 12:03:25;;;;;;;;;;;;;;;;;;5053280;28;20007;-41
2022/07/20 12:05:51;;;;;;;;;;;;;;;;;;5053492;28;19912;-43
2022/07/20 12:08:21;;;;;;;;;;;;;;;;;;5053194;28;19950;-42
2022/07/20 12:10:47;;;;;;;;;;;;;;;;;;5051737;28;19918;-41
2022/07/20 12:13:13;;;;;;;;;;;;;;;;;;5053056;28;20007;-41
2022/07/20 12:15:38;;;;;;;;;;;;;;;;;;5052770;28;19954;-41
2022/07/20 12:18:04;;;;;;;;;;;;;;;;;;5053091;28;19905;-41
2022/07/20 12:20:31;;;;;;;;;;;;;;;;;;5053112;28;19909;-42
2022/07/20 12:22:56;;;;;;;;;;;;;;;;;;5052890;28;20266;-42
2022/07/20 12:25:23;;;;;;;;;;;;;;;;;;5052885;28;19924;-42
2022/07/20 12:27:48;;;;;;;;;;;;;;;;;;5052756;28;20357;-41
2022/07/20 12:30:14;;;;;;;;;;;;;;;;;;5052650;28;20355;-42
2022/07/20 12:32:47;;;;;;;;;;;;;;;;;;5052598;28;19905;-41
2022/07/20 12:35:13;;;;;;;;;;;;;;;;;;5052661;28;19908;-42
2022/07/20 12:37:39;;;;;;;;;;;;;;;;;;5051362;28;19911;-41
2022/07/20 12:40:04;;;;;;;;;;;;;;;;;;5052499;28;19916;-42
2022/07/20 12:42:30;;;;;;;;;;;;;;;;;;5052382;28;19913;-41
2022/07/20 12:44:55;;;;;;;;;;;;;;;;;;5052370;28;19920;-42
2022/07/20 12:47:24;;;;;;;;;;;;;;;;;;5052475;28;19954;-41
2022/07/20 12:49:51;;;;;;;;;;;;;;;;;;5052404;28;19916;-42
2022/07/20 12:52:16;;;;;;;;;;;;;;;;;;5052199;28;19909;-41
2022/07/20 12:54:45;;;;;;;;;;;;;;;;;;5052688;28;19916;-41
2022/07/20 12:57:11;;;;;;;;;;;;;;;;;;5052218;28;19909;-42
2022/07/20 12:59:37;;;;;;;;;;;;;;;;;;5052298;28;19924;-42
2022/07/20 13:02:02;;;;;;;;;;;;;;;;;;5051923;28;19915;-41
2022/07/20 13:04:29;;;;;;;;;;;;;;;;;;5052183;28;20004;-41
2022/07/20 13:06:54;;;;;;;;;;;;;;;;;;5052259;28;20282;-40
2022/07/20 13:09:20;;;;;;;;;;;;;;;;;;5052333;28;19912;-41
2022/07/20 13:11:46;;;;;;;;;;;;;;;;;;5052082;28;20282;-41
2022/07/20 13:14:11;;;;;;;;;;;;;;;;;;5051791;28;19913;-42
2022/07/20 13:16:37;;;;;;;;;;;;;;;;;;5051690;28;19921;-41
2022/07/20 13:19:03;;;;;;;;;;;;;;;;;;5051903;28;19999;-44
2022/07/20 13:21:28;;;;;;;;;;;;;;;;;;5051894;28;20461;-41
2022/07/20 13:23:54;;;;;;;;;;;;;;;;;;5051574;28;19924;-41
2022/07/20 13:26:20;;;;;;;;;;;;;;;;;;5051901;28;20334;-41
2022/07/20 13:28:46;;;;;;;;;;;;;;;;;;5051783;28;20572;-41
2022/07/20 13:31:11;;;;;;;;;;;;;;;;;;5051501;28;19909;-42
2022/07/20 13:33:37;;;;;;;;;;;;;;;;;;5051864;28;19912;-42
2022/07/20 13:36:02;;;;;;;;;;;;;;;;;;5051547;28;19905;-41
2022/07/20 13:38:28;;;;;;;;;;;;;;;;;;5051982;28;19913;-41
2022/07/20 13:40:55;;;;;;;;;;;;;;;;;;5051825;28;19912;-41
2022/07/20 13:43:20;;;;;;;;;;;;;;;;;;5051554;28;19968;-42
2022/07/20 13:45:45;;;;;;;;;;;;;;;;;;5051682;28;19955;-41
2022/07/20 13:48:11;;;;;;;;;;;;;;;;;;5051503;28;19920;-41
2022/07/20 13:50:36;;;;;;;;;;;;;;;;;;5051542;28;19909;-43
2022/07/20 13:53:02;;;;;;;;;;;;;;;;;;5051461;28;19909;-42
2022/07/20 13:55:27;;;;;;;;;;;;;;;;;;5051841;28;19905;-42
2022/07/20 13:57:53;;;;;;;;;;;;;;;;;;5051521;28;19909;-41
2022/07/20 14:00:18;;;;;;;;;;;;;;;;;;5051473;28;19909;-42
2022/07/20 14:02:43;;;;;;;;;;;;;;;;;;5051628;28;20015;-41
2022/07/20 14:05:08;;;;;;;;;;;;;;;;;;5051490;28;19909;-41
2022/07/20 14:07:34;;;;;;;;;;;;;;;;;;5051752;28;20262;-41
2022/07/20 14:09:59;;;;;;;;;;;;;;;;;;5051595;28;19908;-42
2022/07/20 14:12:24;;;;;;;;;;;;;;;;;;5051382;28;20358;-42
2022/07/20 14:14:50;;;;;;;;;;;;;;;;;;5051301;28;19999;-41
2022/07/20 14:17:15;;;;;;;;;;;;;;;;;;5051179;28;19917;-40
2022/07/20 14:19:41;;;;;;;;;;;;;;;;;;5051625;28;20333;-42
2022/07/20 14:22:06;;;;;;;;;;;;;;;;;;5051499;28;19909;-41
2022/07/20 14:24:32;;;;;;;;;;;;;;;;;;5051563;28;19912;-41
2022/07/20 14:26:57;;;;;;;;;;;;;;;;;;5051113;28;19920;-41
2022/07/20 14:29:23;;;;;;;;;;;;;;;;;;5051216;28;19905;-42
2022/07/20 14:31:49;;;;;;;;;;;;;;;;;;5051187;28;20011;-41
2022/07/20 14:34:14;;;;;;;;;;;;;;;;;;5050992;28;19927;-41
2022/07/20 14:36:43;;;;;;;;;;;;;;;;;;5051212;28;20046;-41
2022/07/20 14:39:09;;;;;;;;;;;;;;;;;;5051034;28;20255;-41
2022/07/20 14:41:35;;;;;;;;;;;;;;;;;;5051144;28;19908;-42
2022/07/20 14:44:00;;;;;;;;;;;;;;;;;;5053412;28;19912;-44
2022/07/20 14:46:26;;;;;;;;;;;;;;;;;;5054661;28;19908;-42
2022/07/20 14:48:51;;;;;;;;;;;;;;;;;;5054650;28;19915;-42
2022/07/20 14:51:16;;;;;;;;;;;;;;;;;;5054680;28;19921;-41
2022/07/20 14:53:45;;;;;;;;;;;;;;;;;;5054427;28;20278;-41
2022/07/20 14:56:11;;;;;;;;;;;;;;;;;;5054696;28;19970;-42
2022/07/20 14:58:37;;;;;;;;;;;;;;;;;;5054479;28;19908;-41
2022/07/20 15:01:02;;;;;;;;;;;;;;;;;;5053112;28;19963;-42
2022/07/20 15:03:27;;;;;;;;;;;;;;;;;;5053633;28;19912;-41
2022/07/20 15:05:53;;;;;;;;;;;;;;;;;;5052949;28;20517;-41
2022/07/20 15:08:19;;;;;;;;;;;;;;;;;;5054655;28;20279;-43
2022/07/20 15:10:45;;;;;;;;;;;;;;;;;;5054199;28;20412;-41
2022/07/20 15:13:10;;;;;;;;;;;;;;;;;;5052940;28;19909;-41
2022/07/20 15:15:36;;;;;;;;;;;;;;;;;;5053871;28;19908;-41
2022/07/20 15:18:01;;;;;;;;;;;;;;;;;;5054114;28;19919;-42
2022/07/20 15:20:27;;;;;;;;;;;;;;;;;;5054214;28;20007;-42
2022/07/20 15:22:52;;;;;;;;;;;;;;;;;;5053676;28;19974;-41
2022/07/20 15:25:18;;;;;;;;;;;;;;;;;;5054084;28;19912;-42
2022/07/20 15:27:43;;;;;;;;;;;;;;;;;;5054005;28;19905;-42
2022/07/20 15:30:09;;;;;;;;;;;;;;;;;;5053840;28;20328;-42
2022/07/20 15:32:34;;;;;;;;;;;;;;;;;;5052605;28;20347;-45
2022/07/20 15:34:59;;;;;;;;;;;;;;;;;;5053764;28;19909;-42
2022/07/20 15:37:25;;;;;;;;;;;;;;;;;;5052514;28;19916;-41
2022/07/20 15:39:50;;;;;;;;;;;;;;;;;;5053714;28;19913;-42
2022/07/20 15:42:16;;;;;;;;;;;;;;;;;;5053513;28;19950;-41
2022/07/20 15:44:41;;;;;;;;;;;;;;;;;;5053998;28;19913;-40
2022/07/20 15:47:07;;;;;;;;;;;;;;;;;;5052652;28;19908;-42
2022/07/20 15:49:41;;;;;;;;;;;;;;;;;;5053596;28;20333;-42
2022/07/20 15:52:07;;;;;;;;;;;;;;;;;;5053678;28;19948;-42
2022/07/20 15:54:36;;;;;;;;;;;;;;;;;;5052849;28;19908;-41
2022/07/20 15:57:20;;;;;;;;;;;;;;;;;;5053323;28;19959;-41
2022/07/20 15:59:46;;;;;;;;;;;;;;;;;;5053425;28;19916;-43
2022/07/20 16:02:11;;;;;;;;;;;;;;;;;;5053474;28;19908;-42
2022/07/20 16:04:36;;;;;;;;;;;;;;;;;;5053449;28;19920;-41
2022/07/20 16:07:02;;;;;;;;;;;;;;;;;;5053469;28;19905;-41
2022/07/20 16:09:27;;;;;;;;;;;;;;;;;;5053242;28;19952;-41
2022/07/20 16:11:52;;;;;;;;;;;;;;;;;;5052998;28;19913;-41
2022/07/20 16:14:18;;;;;;;;;;;;;;;;;;5053146;28;20325;-42
2022/07/20 16:16:43;;;;;;;;;;;;;;;;;;5051727;28;19916;-41
2022/07/20 16:19:08;;;;;;;;;;;;;;;;;;5052822;28;19913;-41
2022/07/20 16:21:34;;;;;;;;;;;;;;;;;;5053009;28;19904;-41
2022/07/20 16:23:59;;;;;;;;;;;;;;;;;;5052974;28;19940;-41
2022/07/20 16:26:24;;;;;;;;;;;;;;;;;;5052824;28;20405;-41
2022/07/20 16:28:52;;;;;;;;;;;;;;;;;;5052817;28;20391;-41
2022/07/20 16:31:18;;;;;;;;;;;;;;;;;;5053084;28;19908;-41
2022/07/20 16:33:43;;;;;;;;;;;;;;;;;;5051367;28;20031;-41
2022/07/20 16:36:09;;;;;;;;;;;;;;;;;;5052810;28;19905;-41
2022/07/20 16:38:34;;;;;;;;;;;;;;;;;;5052963;28;19935;-42
2022/07/20 16:40:59;;;;;;;;;;;;;;;;;;5052448;28;19911;-41